Aeroporto :
LOGIN :

Iscrizione | Disclaimer

   EN    FR    IT 

 










Sommario :    VFR   VFR Marginale   IFR   IFR Intensivo   IFR Molto Intensivo
Visibilità : 
Base nubi : 
>= 8 km
>= 3000ft
5 / 8 km
1000 / 3000 ft
1500m / 5 km
500 / 1000 ft
800 / 1500m
200 / 500 ft
< 800m
< 200 ft
Simboli :   Temporali  Nebbia  Neve Forte  Precipitazioni Forti  Vento > 20 kt
SIGMETs :   Varie  Temporali  Ghiacco  Turbolenza  Onda orograficha  Ceneri Vulcaniche






- Altitudine del aeroporto : 1411 ft
- Codice IATA : GVA


LSGG - Genève Cointrin

ULTIMO METAR :
  • 170650Z VRB02KT 9000 BKN015 02/01 Q1005 NOSIG

METARs OBSOLETI :
  • 170620Z 22003KT 9999 FEW017 02/01 Q1005 NOSIG
  • 170550Z VRB02KT 9999 FEW015 BKN020 00/M00 Q1005 NOSIG
  • 170520Z 25002KT 9999 BKN015 BKN027 01/00 Q1006 NOSIG
  • 170450Z VRB02KT 9999 FEW015 BKN027 00/M00 Q1006 NOSIG
  • 170420Z AUTO 27003KT 9999 FEW025 01/00 Q1007 NOSIG

TAF TAF LSGG
Valido dal 17 a 06 ore il 18 a 12 ore UTC


170525Z 1706/1812 VRB03KT 9999 BKN025 TX04/1716Z TN00/1706Z TN02/1806Z
BECMG 1708/1710 04007KT 4500 RA BKN014
PROB30
TEMPO 1710/1715 VRB03KT 2500 RASN BKN009
BECMG 1716/1719 7000 NSW BKN025
ATIS : +41 22 417 40 81



MetMap, La meteo Aeronautica in un colpo d'occhio ! - Copyright ORBIFLY Dicembre 2007 - Disclaimer

ORBIFLY MET'MAP TEAM :

Programmazione e sviluppo : Alexandra Zaïnal
Concezione e sviluppo : Baudouin d'Aumeries
Co-Programmazione e sviluppo : Marc-Olivier Méhu
Supporto tecnico e logistico : Manuel Goepfert
Aiuto per la traduzione : Arnaldo La Scala

Contatto : metmap@orbifly.com




FONTI E CREDITI :

   NOAA